sensor_id;sensor_type;location;lat;lon;timestamp;temperature;humidity
5134;DHT22;2585;48.696;10.066;2022-09-13T00:00:40;9.40;90.70
5134;DHT22;2585;48.696;10.066;2022-09-13T00:03:08;9.40;90.80
5134;DHT22;2585;48.696;10.066;2022-09-13T00:05:36;9.30;90.80
5134;DHT22;2585;48.696;10.066;2022-09-13T00:08:04;9.30;90.80
5134;DHT22;2585;48.696;10.066;2022-09-13T00:10:34;9.30;90.90
5134;DHT22;2585;48.696;10.066;2022-09-13T00:13:02;9.20;90.90
5134;DHT22;2585;48.696;10.066;2022-09-13T00:15:29;9.20;91.00
5134;DHT22;2585;48.696;10.066;2022-09-13T00:17:56;9.20;91.10
5134;DHT22;2585;48.696;10.066;2022-09-13T00:20:22;9.20;91.10
5134;DHT22;2585;48.696;10.066;2022-09-13T00:22:49;9.20;91.10
5134;DHT22;2585;48.696;10.066;2022-09-13T00:25:16;9.20;91.10
5134;DHT22;2585;48.696;10.066;2022-09-13T00:27:43;9.20;91.10
5134;DHT22;2585;48.696;10.066;2022-09-13T00:30:11;9.20;91.10
5134;DHT22;2585;48.696;10.066;2022-09-13T00:32:39;9.10;91.10
5134;DHT22;2585;48.696;10.066;2022-09-13T00:35:06;9.10;91.10
5134;DHT22;2585;48.696;10.066;2022-09-13T00:37:33;9.10;91.10
5134;DHT22;2585;48.696;10.066;2022-09-13T00:40:02;9.10;91.10
5134;DHT22;2585;48.696;10.066;2022-09-13T00:42:30;9.10;91.10
5134;DHT22;2585;48.696;10.066;2022-09-13T00:52:38;9.10;91.10
5134;DHT22;2585;48.696;10.066;2022-09-13T00:55:26;9.00;91.10
5134;DHT22;2585;48.696;10.066;2022-09-13T00:57:59;9.00;91.10
5134;DHT22;2585;48.696;10.066;2022-09-13T01:00:27;9.00;91.10
5134;DHT22;2585;48.696;10.066;2022-09-13T01:03:00;9.00;91.10
5134;DHT22;2585;48.696;10.066;2022-09-13T01:05:32;9.00;91.20
5134;DHT22;2585;48.696;10.066;2022-09-13T01:08:02;9.00;91.30
5134;DHT22;2585;48.696;10.066;2022-09-13T01:10:29;9.00;91.40
5134;DHT22;2585;48.696;10.066;2022-09-13T01:13:08;8.90;91.30
5134;DHT22;2585;48.696;10.066;2022-09-13T01:15:40;9.00;91.40
5134;DHT22;2585;48.696;10.066;2022-09-13T01:18:08;8.90;91.30
5134;DHT22;2585;48.696;10.066;2022-09-13T01:20:47;9.00;91.40
5134;DHT22;2585;48.696;10.066;2022-09-13T01:26:17;8.90;91.40
5134;DHT22;2585;48.696;10.066;2022-09-13T01:29:01;8.90;91.30
5134;DHT22;2585;48.696;10.066;2022-09-13T01:40:28;8.90;91.40
5134;DHT22;2585;48.696;10.066;2022-09-13T01:43:14;8.80;91.30
5134;DHT22;2585;48.696;10.066;2022-09-13T01:46:25;8.80;91.30
5134;DHT22;2585;48.696;10.066;2022-09-13T01:49:02;8.70;91.30
5134;DHT22;2585;48.696;10.066;2022-09-13T01:51:44;8.60;91.30
5134;DHT22;2585;48.696;10.066;2022-09-13T01:54:37;8.60;91.30
5134;DHT22;2585;48.696;10.066;2022-09-13T02:00:05;8.60;91.40
5134;DHT22;2585;48.696;10.066;2022-09-13T02:02:43;8.60;91.40
5134;DHT22;2585;48.696;10.066;2022-09-13T02:05:15;8.60;91.40
5134;DHT22;2585;48.696;10.066;2022-09-13T02:07:49;8.50;91.30
5134;DHT22;2585;48.696;10.066;2022-09-13T02:10:34;8.50;91.40
5134;DHT22;2585;48.696;10.066;2022-09-13T02:13:05;8.50;91.40
5134;DHT22;2585;48.696;10.066;2022-09-13T02:15:48;8.50;91.40
5134;DHT22;2585;48.696;10.066;2022-09-13T02:18:34;8.50;91.40
5134;DHT22;2585;48.696;10.066;2022-09-13T02:21:10;8.50;91.40
5134;DHT22;2585;48.696;10.066;2022-09-13T02:23:42;8.40;91.30
5134;DHT22;2585;48.696;10.066;2022-09-13T02:26:12;8.40;91.30
5134;DHT22;2585;48.696;10.066;2022-09-13T02:28:46;8.40;91.30
5134;DHT22;2585;48.696;10.066;2022-09-13T02:31:17;8.30;91.30
5134;DHT22;2585;48.696;10.066;2022-09-13T02:33:50;8.30;91.30
5134;DHT22;2585;48.696;10.066;2022-09-13T02:36:23;8.30;91.30
5134;DHT22;2585;48.696;10.066;2022-09-13T02:39:03;8.30;91.30
5134;DHT22;2585;48.696;10.066;2022-09-13T02:41:35;8.30;91.30
5134;DHT22;2585;48.696;10.066;2022-09-13T02:49:47;8.30;91.30
5134;DHT22;2585;48.696;10.066;2022-09-13T02:55:10;8.20;91.20
5134;DHT22;2585;48.696;10.066;2022-09-13T02:58:03;8.20;91.20
5134;DHT22;2585;48.696;10.066;2022-09-13T03:00:30;8.10;91.10
5134;DHT22;2585;48.696;10.066;2022-09-13T03:03:01;8.00;91.10
5134;DHT22;2585;48.696;10.066;2022-09-13T03:05:28;8.10;91.20
5134;DHT22;2585;48.696;10.066;2022-09-13T03:07:55;8.00;91.20
5134;DHT22;2585;48.696;10.066;2022-09-13T03:10:23;8.00;91.20
5134;DHT22;2585;48.696;10.066;2022-09-13T03:13:19;8.00;91.20
5134;DHT22;2585;48.696;10.066;2022-09-13T03:15:57;8.00;91.20
5134;DHT22;2585;48.696;10.066;2022-09-13T03:21:14;7.90;91.20
5134;DHT22;2585;48.696;10.066;2022-09-13T03:26:57;7.90;91.20
5134;DHT22;2585;48.696;10.066;2022-09-13T03:32:19;7.90;91.30
5134;DHT22;2585;48.696;10.066;2022-09-13T03:37:49;7.80;91.20
5134;DHT22;2585;48.696;10.066;2022-09-13T03:43:06;7.90;91.30
5134;DHT22;2585;48.696;10.066;2022-09-13T03:45:42;7.80;91.30
5134;DHT22;2585;48.696;10.066;2022-09-13T03:48:11;7.80;91.30
5134;DHT22;2585;48.696;10.066;2022-09-13T03:50:38;7.80;91.30
5134;DHT22;2585;48.696;10.066;2022-09-13T03:53:12;7.70;91.20
5134;DHT22;2585;48.696;10.066;2022-09-13T03:55:41;7.70;91.20
5134;DHT22;2585;48.696;10.066;2022-09-13T03:58:11;7.70;91.20
5134;DHT22;2585;48.696;10.066;2022-09-13T04:00:39;7.70;91.30
5134;DHT22;2585;48.696;10.066;2022-09-13T04:03:07;7.60;91.20
5134;DHT22;2585;48.696;10.066;2022-09-13T04:05:34;7.70;91.30
5134;DHT22;2585;48.696;10.066;2022-09-13T04:08:02;7.60;91.30
5134;DHT22;2585;48.696;10.066;2022-09-13T04:10:32;7.70;91.30
5134;DHT22;2585;48.696;10.066;2022-09-13T04:12:59;7.70;91.30
5134;DHT22;2585;48.696;10.066;2022-09-13T04:15:27;7.70;91.30
5134;DHT22;2585;48.696;10.066;2022-09-13T04:17:54;7.70;91.30
5134;DHT22;2585;48.696;10.066;2022-09-13T04:20:20;7.60;91.30
5134;DHT22;2585;48.696;10.066;2022-09-13T04:22:54;7.60;91.30
5134;DHT22;2585;48.696;10.066;2022-09-13T04:25:22;7.60;91.30
5134;DHT22;2585;48.696;10.066;2022-09-13T04:27:53;7.50;91.20
5134;DHT22;2585;48.696;10.066;2022-09-13T04:30:21;7.50;91.30
5134;DHT22;2585;48.696;10.066;2022-09-13T04:32:48;7.50;91.30
5134;DHT22;2585;48.696;10.066;2022-09-13T04:35:16;7.50;91.30
5134;DHT22;2585;48.696;10.066;2022-09-13T04:37:43;7.60;91.30
5134;DHT22;2585;48.696;10.066;2022-09-13T04:40:10;7.60;91.30
5134;DHT22;2585;48.696;10.066;2022-09-13T04:42:37;7.60;91.30
5134;DHT22;2585;48.696;10.066;2022-09-13T04:45:05;7.50;91.20
5134;DHT22;2585;48.696;10.066;2022-09-13T04:47:32;7.50;91.30
5134;DHT22;2585;48.696;10.066;2022-09-13T04:49:58;7.50;91.30
5134;DHT22;2585;48.696;10.066;2022-09-13T04:52:25;7.50;91.30
5134;DHT22;2585;48.696;10.066;2022-09-13T04:54:52;7.50;91.30
5134;DHT22;2585;48.696;10.066;2022-09-13T04:57:19;7.50;91.30
5134;DHT22;2585;48.696;10.066;2022-09-13T04:59:45;7.40;91.30
5134;DHT22;2585;48.696;10.066;2022-09-13T05:02:12;7.50;91.30
5134;DHT22;2585;48.696;10.066;2022-09-13T05:04:39;7.50;91.30
5134;DHT22;2585;48.696;10.066;2022-09-13T05:07:06;7.50;91.30
5134;DHT22;2585;48.696;10.066;2022-09-13T05:09:32;7.50;91.30
5134;DHT22;2585;48.696;10.066;2022-09-13T05:11:59;7.50;91.30
5134;DHT22;2585;48.696;10.066;2022-09-13T05:14:26;7.50;91.30
5134;DHT22;2585;48.696;10.066;2022-09-13T05:16:53;7.50;91.40
5134;DHT22;2585;48.696;10.066;2022-09-13T05:19:20;7.50;91.40
5134;DHT22;2585;48.696;10.066;2022-09-13T05:21:47;7.60;91.40
5134;DHT22;2585;48.696;10.066;2022-09-13T05:24:13;7.60;91.40
5134;DHT22;2585;48.696;10.066;2022-09-13T05:26:40;7.70;91.50
5134;DHT22;2585;48.696;10.066;2022-09-13T05:29:07;7.80;91.50
5134;DHT22;2585;48.696;10.066;2022-09-13T05:31:36;7.80;91.50
5134;DHT22;2585;48.696;10.066;2022-09-13T05:34:06;7.90;91.50
5134;DHT22;2585;48.696;10.066;2022-09-13T05:36:33;8.00;91.60
5134;DHT22;2585;48.696;10.066;2022-09-13T05:39:00;8.10;91.60
5134;DHT22;2585;48.696;10.066;2022-09-13T05:41:47;8.10;91.60
5134;DHT22;2585;48.696;10.066;2022-09-13T05:44:14;8.30;91.70
5134;DHT22;2585;48.696;10.066;2022-09-13T05:46:41;8.40;91.70
5134;DHT22;2585;48.696;10.066;2022-09-13T05:49:10;8.50;91.70
5134;DHT22;2585;48.696;10.066;2022-09-13T05:51:37;8.70;91.80
5134;DHT22;2585;48.696;10.066;2022-09-13T05:54:04;8.80;91.80
5134;DHT22;2585;48.696;10.066;2022-09-13T05:56:31;8.90;91.80
5134;DHT22;2585;48.696;10.066;2022-09-13T05:58:58;9.00;91.90
5134;DHT22;2585;48.696;10.066;2022-09-13T06:01:27;9.00;91.80
5134;DHT22;2585;48.696;10.066;2022-09-13T06:03:56;9.10;91.90
5134;DHT22;2585;48.696;10.066;2022-09-13T06:06:24;9.20;91.90
5134;DHT22;2585;48.696;10.066;2022-09-13T06:08:55;9.30;91.90
5134;DHT22;2585;48.696;10.066;2022-09-13T06:11:23;9.40;91.90
5134;DHT22;2585;48.696;10.066;2022-09-13T06:13:51;9.60;91.90
5134;DHT22;2585;48.696;10.066;2022-09-13T06:16:18;9.70;92.00
5134;DHT22;2585;48.696;10.066;2022-09-13T06:18:45;9.80;92.00
5134;DHT22;2585;48.696;10.066;2022-09-13T06:21:20;9.90;92.00
5134;DHT22;2585;48.696;10.066;2022-09-13T06:23:54;10.00;91.70
5134;DHT22;2585;48.696;10.066;2022-09-13T06:26:23;10.00;91.70
5134;DHT22;2585;48.696;10.066;2022-09-13T06:28:53;10.10;91.70
5134;DHT22;2585;48.696;10.066;2022-09-13T06:31:22;10.10;91.70
5134;DHT22;2585;48.696;10.066;2022-09-13T06:34:03;10.20;91.80
5134;DHT22;2585;48.696;10.066;2022-09-13T06:36:30;10.20;91.80
5134;DHT22;2585;48.696;10.066;2022-09-13T06:38:57;10.30;91.90
5134;DHT22;2585;48.696;10.066;2022-09-13T06:41:26;10.40;91.90
5134;DHT22;2585;48.696;10.066;2022-09-13T06:43:55;10.40;91.90
5134;DHT22;2585;48.696;10.066;2022-09-13T06:46:23;10.50;91.90
5134;DHT22;2585;48.696;10.066;2022-09-13T06:48:51;10.60;91.90
5134;DHT22;2585;48.696;10.066;2022-09-13T06:51:21;10.70;91.90
5134;DHT22;2585;48.696;10.066;2022-09-13T06:53:49;10.80;92.00
5134;DHT22;2585;48.696;10.066;2022-09-13T06:56:20;10.80;92.00
5134;DHT22;2585;48.696;10.066;2022-09-13T06:58:49;10.90;92.00
5134;DHT22;2585;48.696;10.066;2022-09-13T07:01:22;11.00;92.00
5134;DHT22;2585;48.696;10.066;2022-09-13T07:03:52;11.10;92.00
5134;DHT22;2585;48.696;10.066;2022-09-13T07:06:43;11.20;92.00
5134;DHT22;2585;48.696;10.066;2022-09-13T07:09:13;11.40;92.00
5134;DHT22;2585;48.696;10.066;2022-09-13T07:11:41;11.70;92.10
5134;DHT22;2585;48.696;10.066;2022-09-13T07:14:15;11.90;92.10
5134;DHT22;2585;48.696;10.066;2022-09-13T07:16:42;12.00;91.90
5134;DHT22;2585;48.696;10.066;2022-09-13T07:19:17;12.00;91.50
5134;DHT22;2585;48.696;10.066;2022-09-13T07:21:45;12.30;91.60
5134;DHT22;2585;48.696;10.066;2022-09-13T07:24:12;12.50;91.10
5134;DHT22;2585;48.696;10.066;2022-09-13T07:26:39;12.80;91.00
5134;DHT22;2585;48.696;10.066;2022-09-13T07:29:07;13.20;90.70
5134;DHT22;2585;48.696;10.066;2022-09-13T07:31:40;13.20;85.90
5134;DHT22;2585;48.696;10.066;2022-09-13T07:34:12;13.50;84.30
5134;DHT22;2585;48.696;10.066;2022-09-13T07:36:39;13.70;78.30
5134;DHT22;2585;48.696;10.066;2022-09-13T07:39:07;14.00;69.00
5134;DHT22;2585;48.696;10.066;2022-09-13T07:41:40;14.10;63.90
5134;DHT22;2585;48.696;10.066;2022-09-13T07:44:09;14.10;47.80
5134;DHT22;2585;48.696;10.066;2022-09-13T07:46:37;14.30;58.40
5134;DHT22;2585;48.696;10.066;2022-09-13T07:49:15;14.30;35.70
5134;DHT22;2585;48.696;10.066;2022-09-13T07:51:43;14.60;28.50
5134;DHT22;2585;48.696;10.066;2022-09-13T07:54:15;14.60;26.10
5134;DHT22;2585;48.696;10.066;2022-09-13T07:56:43;14.80;30.20
5134;DHT22;2585;48.696;10.066;2022-09-13T07:59:13;14.90;25.40
5134;DHT22;2585;48.696;10.066;2022-09-13T08:01:45;14.90;23.30
5134;DHT22;2585;48.696;10.066;2022-09-13T08:04:21;15.10;22.30
5134;DHT22;2585;48.696;10.066;2022-09-13T08:06:49;15.10;15.70
5134;DHT22;2585;48.696;10.066;2022-09-13T08:09:16;15.30;19.20
5134;DHT22;2585;48.696;10.066;2022-09-13T08:11:46;15.30;16.50
5134;DHT22;2585;48.696;10.066;2022-09-13T08:14:15;15.60;18.40
5134;DHT22;2585;48.696;10.066;2022-09-13T08:16:42;15.80;12.40
5134;DHT22;2585;48.696;10.066;2022-09-13T08:19:11;16.20;12.10
5134;DHT22;2585;48.696;10.066;2022-09-13T08:21:39;16.50;5.40
5134;DHT22;2585;48.696;10.066;2022-09-13T08:24:11;16.80;3.40
5134;DHT22;2585;48.696;10.066;2022-09-13T08:26:38;17.20;2.70
5134;DHT22;2585;48.696;10.066;2022-09-13T08:29:05;17.60;3.90
5134;DHT22;2585;48.696;10.066;2022-09-13T08:31:33;17.90;1.30
5134;DHT22;2585;48.696;10.066;2022-09-13T08:34:00;17.70;1.00
5134;DHT22;2585;48.696;10.066;2022-09-13T08:36:28;18.00;2.10
5134;DHT22;2585;48.696;10.066;2022-09-13T08:38:57;18.20;1.00
5134;DHT22;2585;48.696;10.066;2022-09-13T08:44:22;19.10;1.00
5134;DHT22;2585;48.696;10.066;2022-09-13T08:49:30;19.80;1.00
5134;DHT22;2585;48.696;10.066;2022-09-13T08:52:11;20.20;1.00
5134;DHT22;2585;48.696;10.066;2022-09-13T08:54:42;20.70;1.00
5134;DHT22;2585;48.696;10.066;2022-09-13T08:57:24;21.10;1.00
5134;DHT22;2585;48.696;10.066;2022-09-13T09:00:08;21.50;1.00
5134;DHT22;2585;48.696;10.066;2022-09-13T09:05:32;22.30;1.00
5134;DHT22;2585;48.696;10.066;2022-09-13T09:08:24;22.50;1.00
5134;DHT22;2585;48.696;10.066;2022-09-13T09:10:54;22.70;1.00
5134;DHT22;2585;48.696;10.066;2022-09-13T09:13:35;22.50;1.00
5134;DHT22;2585;48.696;10.066;2022-09-13T09:18:58;23.20;1.00
5134;DHT22;2585;48.696;10.066;2022-09-13T09:21:25;23.50;1.00
5134;DHT22;2585;48.696;10.066;2022-09-13T09:23:54;24.10;1.00
5134;DHT22;2585;48.696;10.066;2022-09-13T09:26:25;24.30;1.00
5134;DHT22;2585;48.696;10.066;2022-09-13T09:29:00;24.70;1.00
5134;DHT22;2585;48.696;10.066;2022-09-13T09:39:33;25.50;1.00
5134;DHT22;2585;48.696;10.066;2022-09-13T09:42:14;26.10;1.00
5134;DHT22;2585;48.696;10.066;2022-09-13T09:44:45;26.10;1.00
5134;DHT22;2585;48.696;10.066;2022-09-13T09:47:18;25.90;1.00
5134;DHT22;2585;48.696;10.066;2022-09-13T09:50:11;25.80;1.00
5134;DHT22;2585;48.696;10.066;2022-09-13T09:58:12;26.40;1.00
5134;DHT22;2585;48.696;10.066;2022-09-13T10:00:53;27.00;1.00
5134;DHT22;2585;48.696;10.066;2022-09-13T10:03:27;26.90;1.00
5134;DHT22;2585;48.696;10.066;2022-09-13T10:06:13;26.90;1.00
5134;DHT22;2585;48.696;10.066;2022-09-13T10:09:33;26.60;1.00
5134;DHT22;2585;48.696;10.066;2022-09-13T10:11:55;25.90;1.00
5134;DHT22;2585;48.696;10.066;2022-09-13T10:14:43;25.80;1.00
5134;DHT22;2585;48.696;10.066;2022-09-13T10:17:19;26.00;1.00
5134;DHT22;2585;48.696;10.066;2022-09-13T10:20:01;25.90;1.00
5134;DHT22;2585;48.696;10.066;2022-09-13T10:22:30;25.80;1.00
5134;DHT22;2585;48.696;10.066;2022-09-13T10:25:20;25.70;1.00
5134;DHT22;2585;48.696;10.066;2022-09-13T10:27:50;25.60;1.00
5134;DHT22;2585;48.696;10.066;2022-09-13T10:30:47;25.70;1.00
5134;DHT22;2585;48.696;10.066;2022-09-13T10:33:25;25.90;1.00
5134;DHT22;2585;48.696;10.066;2022-09-13T10:35:54;26.30;1.00
5134;DHT22;2585;48.696;10.066;2022-09-13T10:38:43;26.90;1.00
5134;DHT22;2585;48.696;10.066;2022-09-13T10:41:23;28.00;1.00
5134;DHT22;2585;48.696;10.066;2022-09-13T10:44:01;28.60;1.00
5134;DHT22;2585;48.696;10.066;2022-09-13T10:46:36;28.40;1.00
5134;DHT22;2585;48.696;10.066;2022-09-13T10:49:04;27.60;1.00
5134;DHT22;2585;48.696;10.066;2022-09-13T10:51:35;27.80;1.00
5134;DHT22;2585;48.696;10.066;2022-09-13T10:54:24;27.80;1.00
5134;DHT22;2585;48.696;10.066;2022-09-13T10:56:51;28.00;1.00
5134;DHT22;2585;48.696;10.066;2022-09-13T10:59:26;27.70;1.00
5134;DHT22;2585;48.696;10.066;2022-09-13T11:08:32;28.70;1.00
5134;DHT22;2585;48.696;10.066;2022-09-13T11:13:23;28.70;1.00
5134;DHT22;2585;48.696;10.066;2022-09-13T11:16:12;28.90;1.00
5134;DHT22;2585;48.696;10.066;2022-09-13T11:27:32;28.70;1.00
5134;DHT22;2585;48.696;10.066;2022-09-13T11:30:17;29.40;1.00
5134;DHT22;2585;48.696;10.066;2022-09-13T11:51:42;29.10;1.00
5134;DHT22;2585;48.696;10.066;2022-09-13T11:54:20;29.60;1.00
5134;DHT22;2585;48.696;10.066;2022-09-13T11:57:13;29.70;1.00
5134;DHT22;2585;48.696;10.066;2022-09-13T11:59:44;29.60;1.00
5134;DHT22;2585;48.696;10.066;2022-09-13T12:05:08;30.80;1.00
5134;DHT22;2585;48.696;10.066;2022-09-13T12:07:52;31.00;1.00
5134;DHT22;2585;48.696;10.066;2022-09-13T12:12:55;30.30;1.00
5134;DHT22;2585;48.696;10.066;2022-09-13T12:18:10;28.90;1.00
5134;DHT22;2585;48.696;10.066;2022-09-13T12:20:43;29.30;1.00
5134;DHT22;2585;48.696;10.066;2022-09-13T12:23:37;29.30;1.00
5134;DHT22;2585;48.696;10.066;2022-09-13T12:28:57;30.00;1.00
5134;DHT22;2585;48.696;10.066;2022-09-13T12:31:27;30.10;1.00
5134;DHT22;2585;48.696;10.066;2022-09-13T12:33:54;30.50;1.00
5134;DHT22;2585;48.696;10.066;2022-09-13T12:53:22;29.10;1.00
5134;DHT22;2585;48.696;10.066;2022-09-13T13:01:48;29.70;1.00
5134;DHT22;2585;48.696;10.066;2022-09-13T13:04:28;29.60;1.00
5134;DHT22;2585;48.696;10.066;2022-09-13T13:07:01;29.30;1.00
5134;DHT22;2585;48.696;10.066;2022-09-13T13:12:10;28.30;1.00
5134;DHT22;2585;48.696;10.066;2022-09-13T13:23:35;28.70;1.00
5134;DHT22;2585;48.696;10.066;2022-09-13T13:26:09;29.10;1.00
5134;DHT22;2585;48.696;10.066;2022-09-13T13:39:34;29.10;1.00
5134;DHT22;2585;48.696;10.066;2022-09-13T13:50:14;29.60;1.00
5134;DHT22;2585;48.696;10.066;2022-09-13T13:55:41;29.60;1.00
5134;DHT22;2585;48.696;10.066;2022-09-13T14:00:54;29.90;1.00
5134;DHT22;2585;48.696;10.066;2022-09-13T14:09:46;29.80;1.00
5134;DHT22;2585;48.696;10.066;2022-09-13T14:12:26;29.60;1.00
5134;DHT22;2585;48.696;10.066;2022-09-13T14:20:17;28.10;1.00
5134;DHT22;2585;48.696;10.066;2022-09-13T14:22:45;28.20;1.00
5134;DHT22;2585;48.696;10.066;2022-09-13T14:27:46;27.60;1.00
5134;DHT22;2585;48.696;10.066;2022-09-13T14:32:47;27.40;1.00
5134;DHT22;2585;48.696;10.066;2022-09-13T14:35:25;27.50;1.00
5134;DHT22;2585;48.696;10.066;2022-09-13T14:37:53;27.50;1.00
5134;DHT22;2585;48.696;10.066;2022-09-13T14:40:27;27.40;1.00
5134;DHT22;2585;48.696;10.066;2022-09-13T14:42:55;27.20;1.00
5134;DHT22;2585;48.696;10.066;2022-09-13T14:45:26;27.10;1.00
5134;DHT22;2585;48.696;10.066;2022-09-13T14:50:34;27.00;1.00
5134;DHT22;2585;48.696;10.066;2022-09-13T14:53:10;26.60;1.00
5134;DHT22;2585;48.696;10.066;2022-09-13T14:55:43;26.40;1.00
5134;DHT22;2585;48.696;10.066;2022-09-13T14:58:24;26.20;1.00
5134;DHT22;2585;48.696;10.066;2022-09-13T15:01:06;25.90;1.00
5134;DHT22;2585;48.696;10.066;2022-09-13T15:03:34;25.80;1.00
5134;DHT22;2585;48.696;10.066;2022-09-13T15:06:02;25.60;1.00
5134;DHT22;2585;48.696;10.066;2022-09-13T15:11:03;25.40;1.00
5134;DHT22;2585;48.696;10.066;2022-09-13T15:13:31;25.50;1.00
5134;DHT22;2585;48.696;10.066;2022-09-13T15:15:58;25.50;1.00
5134;DHT22;2585;48.696;10.066;2022-09-13T15:18:30;25.50;1.00
5134;DHT22;2585;48.696;10.066;2022-09-13T15:21:12;25.50;1.00
5134;DHT22;2585;48.696;10.066;2022-09-13T15:23:42;25.60;1.00
5134;DHT22;2585;48.696;10.066;2022-09-13T15:26:22;25.50;1.00
5134;DHT22;2585;48.696;10.066;2022-09-13T15:31:27;25.40;1.00
5134;DHT22;2585;48.696;10.066;2022-09-13T15:36:44;25.50;1.00
5134;DHT22;2585;48.696;10.066;2022-09-13T15:39:19;25.40;1.00
5134;DHT22;2585;48.696;10.066;2022-09-13T15:41:56;25.30;1.00
5134;DHT22;2585;48.696;10.066;2022-09-13T15:44:23;25.20;1.00
5134;DHT22;2585;48.696;10.066;2022-09-13T15:46:55;25.20;1.00
5134;DHT22;2585;48.696;10.066;2022-09-13T15:49:24;25.20;1.00
5134;DHT22;2585;48.696;10.066;2022-09-13T15:51:58;25.20;1.00
5134;DHT22;2585;48.696;10.066;2022-09-13T15:57:00;25.00;1.00
5134;DHT22;2585;48.696;10.066;2022-09-13T15:59:27;25.00;1.00
5134;DHT22;2585;48.696;10.066;2022-09-13T16:01:54;24.90;1.00
5134;DHT22;2585;48.696;10.066;2022-09-13T16:04:22;24.70;1.00
5134;DHT22;2585;48.696;10.066;2022-09-13T16:06:48;24.60;1.00
5134;DHT22;2585;48.696;10.066;2022-09-13T16:09:21;24.40;1.00
5134;DHT22;2585;48.696;10.066;2022-09-13T16:11:49;24.30;1.00
5134;DHT22;2585;48.696;10.066;2022-09-13T16:14:17;24.10;1.00
5134;DHT22;2585;48.696;10.066;2022-09-13T16:16:45;23.90;1.00
5134;DHT22;2585;48.696;10.066;2022-09-13T16:19:14;23.80;1.00
5134;DHT22;2585;48.696;10.066;2022-09-13T16:21:41;23.70;1.00
5134;DHT22;2585;48.696;10.066;2022-09-13T16:24:08;23.60;1.00
5134;DHT22;2585;48.696;10.066;2022-09-13T16:26:35;23.50;1.00
5134;DHT22;2585;48.696;10.066;2022-09-13T16:29:02;23.40;1.00
5134;DHT22;2585;48.696;10.066;2022-09-13T16:31:29;23.30;1.00
5134;DHT22;2585;48.696;10.066;2022-09-13T16:33:56;23.10;1.00
5134;DHT22;2585;48.696;10.066;2022-09-13T16:36:22;23.10;1.00
5134;DHT22;2585;48.696;10.066;2022-09-13T16:38:49;22.90;1.00
5134;DHT22;2585;48.696;10.066;2022-09-13T16:41:16;22.80;1.00
5134;DHT22;2585;48.696;10.066;2022-09-13T16:43:43;22.80;1.00
5134;DHT22;2585;48.696;10.066;2022-09-13T16:46:10;22.60;1.00
5134;DHT22;2585;48.696;10.066;2022-09-13T16:48:39;22.40;1.00
5134;DHT22;2585;48.696;10.066;2022-09-13T16:51:08;22.40;1.00
5134;DHT22;2585;48.696;10.066;2022-09-13T16:53:40;22.40;1.00
5134;DHT22;2585;48.696;10.066;2022-09-13T16:56:12;22.30;1.00
5134;DHT22;2585;48.696;10.066;2022-09-13T16:58:41;22.20;1.00
5134;DHT22;2585;48.696;10.066;2022-09-13T17:01:10;22.10;1.00
5134;DHT22;2585;48.696;10.066;2022-09-13T17:03:38;22.00;1.00
5134;DHT22;2585;48.696;10.066;2022-09-13T17:06:07;21.90;1.00
5134;DHT22;2585;48.696;10.066;2022-09-13T17:08:36;21.90;1.00
5134;DHT22;2585;48.696;10.066;2022-09-13T17:11:08;21.70;1.00
5134;DHT22;2585;48.696;10.066;2022-09-13T17:13:37;21.60;1.00
5134;DHT22;2585;48.696;10.066;2022-09-13T17:16:06;21.50;1.00
5134;DHT22;2585;48.696;10.066;2022-09-13T17:18:33;21.40;1.00
5134;DHT22;2585;48.696;10.066;2022-09-13T17:21:00;21.30;1.00
5134;DHT22;2585;48.696;10.066;2022-09-13T17:23:26;21.10;1.00
5134;DHT22;2585;48.696;10.066;2022-09-13T17:25:53;21.00;1.00
5134;DHT22;2585;48.696;10.066;2022-09-13T17:28:20;20.80;1.00
5134;DHT22;2585;48.696;10.066;2022-09-13T17:30:47;20.70;1.00
5134;DHT22;2585;48.696;10.066;2022-09-13T17:33:14;20.70;1.00
5134;DHT22;2585;48.696;10.066;2022-09-13T17:35:41;20.60;1.00
5134;DHT22;2585;48.696;10.066;2022-09-13T17:38:09;20.60;1.00
5134;DHT22;2585;48.696;10.066;2022-09-13T17:40:36;20.50;1.00
5134;DHT22;2585;48.696;10.066;2022-09-13T17:43:03;20.40;1.00
5134;DHT22;2585;48.696;10.066;2022-09-13T17:45:29;20.30;1.00
5134;DHT22;2585;48.696;10.066;2022-09-13T17:47:56;20.20;1.00
5134;DHT22;2585;48.696;10.066;2022-09-13T17:50:24;20.00;1.00
5134;DHT22;2585;48.696;10.066;2022-09-13T17:52:51;20.00;1.00
5134;DHT22;2585;48.696;10.066;2022-09-13T17:55:18;19.90;1.00
5134;DHT22;2585;48.696;10.066;2022-09-13T17:57:47;19.80;1.00
5134;DHT22;2585;48.696;10.066;2022-09-13T18:00:15;19.70;1.00
5134;DHT22;2585;48.696;10.066;2022-09-13T18:02:45;19.60;1.00
5134;DHT22;2585;48.696;10.066;2022-09-13T18:05:12;19.50;1.00
5134;DHT22;2585;48.696;10.066;2022-09-13T18:07:39;19.40;1.00
5134;DHT22;2585;48.696;10.066;2022-09-13T18:10:06;19.30;1.00
5134;DHT22;2585;48.696;10.066;2022-09-13T18:12:53;19.20;1.00
5134;DHT22;2585;48.696;10.066;2022-09-13T18:15:20;19.10;1.00
5134;DHT22;2585;48.696;10.066;2022-09-13T18:17:47;19.00;1.00
5134;DHT22;2585;48.696;10.066;2022-09-13T18:20:13;18.90;1.60
5134;DHT22;2585;48.696;10.066;2022-09-13T18:22:40;18.80;2.80
5134;DHT22;2585;48.696;10.066;2022-09-13T18:25:07;18.80;3.90
5134;DHT22;2585;48.696;10.066;2022-09-13T18:27:34;18.80;4.30
5134;DHT22;2585;48.696;10.066;2022-09-13T18:30:01;18.80;4.40
5134;DHT22;2585;48.696;10.066;2022-09-13T18:32:31;18.70;4.70
5134;DHT22;2585;48.696;10.066;2022-09-13T18:34:58;18.70;5.50
5134;DHT22;2585;48.696;10.066;2022-09-13T18:37:25;18.70;6.10
5134;DHT22;2585;48.696;10.066;2022-09-13T18:39:51;18.60;7.70
5134;DHT22;2585;48.696;10.066;2022-09-13T18:42:18;18.50;7.40
5134;DHT22;2585;48.696;10.066;2022-09-13T18:44:45;18.40;9.20
5134;DHT22;2585;48.696;10.066;2022-09-13T18:47:13;18.40;11.90
5134;DHT22;2585;48.696;10.066;2022-09-13T18:49:40;18.30;10.40
5134;DHT22;2585;48.696;10.066;2022-09-13T18:52:07;18.20;11.80
5134;DHT22;2585;48.696;10.066;2022-09-13T18:54:33;18.20;12.90
5134;DHT22;2585;48.696;10.066;2022-09-13T18:57:00;18.20;12.90
5134;DHT22;2585;48.696;10.066;2022-09-13T18:59:27;18.10;12.10
5134;DHT22;2585;48.696;10.066;2022-09-13T19:01:55;17.80;14.10
5134;DHT22;2585;48.696;10.066;2022-09-13T19:04:23;17.80;18.50
5134;DHT22;2585;48.696;10.066;2022-09-13T19:06:51;17.60;21.70
5134;DHT22;2585;48.696;10.066;2022-09-13T19:09:19;17.50;25.10
5134;DHT22;2585;48.696;10.066;2022-09-13T19:11:48;17.50;24.40
5134;DHT22;2585;48.696;10.066;2022-09-13T19:14:18;17.50;23.90
5134;DHT22;2585;48.696;10.066;2022-09-13T19:16:45;17.40;22.70
5134;DHT22;2585;48.696;10.066;2022-09-13T19:19:12;17.40;22.10
5134;DHT22;2585;48.696;10.066;2022-09-13T19:21:39;17.40;25.80
5134;DHT22;2585;48.696;10.066;2022-09-13T19:24:08;17.40;24.80
5134;DHT22;2585;48.696;10.066;2022-09-13T19:26:43;17.30;25.70
5134;DHT22;2585;48.696;10.066;2022-09-13T19:29:12;17.30;26.20
5134;DHT22;2585;48.696;10.066;2022-09-13T19:31:41;17.30;27.70
5134;DHT22;2585;48.696;10.066;2022-09-13T19:34:10;17.20;28.80
5134;DHT22;2585;48.696;10.066;2022-09-13T19:36:38;17.10;28.30
5134;DHT22;2585;48.696;10.066;2022-09-13T19:39:09;17.10;30.90
5134;DHT22;2585;48.696;10.066;2022-09-13T19:41:37;17.00;32.90
5134;DHT22;2585;48.696;10.066;2022-09-13T19:44:04;16.90;37.40
5134;DHT22;2585;48.696;10.066;2022-09-13T19:46:33;16.90;41.10
5134;DHT22;2585;48.696;10.066;2022-09-13T19:49:02;16.90;43.70
5134;DHT22;2585;48.696;10.066;2022-09-13T19:51:34;16.90;42.00